createdAt,value
2022-11-12T00:00:38.942Z,1013.57
2022-11-12T00:01:38.991Z,1013.60
2022-11-12T00:02:38.909Z,1013.56
2022-11-12T00:03:38.921Z,1013.58
2022-11-12T00:04:39.003Z,1013.60
2022-11-12T00:05:38.878Z,1013.57
2022-11-12T00:06:38.930Z,1013.60
2022-11-12T00:07:38.854Z,1013.57
2022-11-12T00:08:38.843Z,1013.57
2022-11-12T00:09:38.833Z,1013.60
2022-11-12T00:10:38.822Z,1013.63
2022-11-12T00:11:38.807Z,1013.54
2022-11-12T00:12:38.826Z,1013.57
2022-11-12T00:13:38.787Z,1013.58
2022-11-12T00:14:38.799Z,1013.58
2022-11-12T00:15:38.807Z,1013.61
2022-11-12T00:16:38.758Z,1013.63
2022-11-12T00:17:38.744Z,1013.64
2022-11-12T00:18:38.764Z,1013.63
2022-11-12T00:19:38.722Z,1013.64
2022-11-12T00:20:38.826Z,1013.61
2022-11-12T00:21:38.866Z,1013.64
2022-11-12T00:22:38.710Z,1013.62
2022-11-12T00:23:38.675Z,1013.64
2022-11-12T00:24:38.669Z,1013.63
2022-11-12T00:25:38.678Z,1013.59
2022-11-12T00:26:38.644Z,1013.66
2022-11-12T00:27:38.633Z,1013.61
2022-11-12T00:28:38.887Z,1013.65
2022-11-12T00:29:38.607Z,1013.68
2022-11-12T00:30:38.622Z,1013.65
2022-11-12T00:31:38.587Z,1013.67
2022-11-12T00:32:38.583Z,1013.61
2022-11-12T00:33:38.584Z,1013.64
2022-11-12T00:34:38.554Z,1013.69
2022-11-12T00:35:38.546Z,1013.65
2022-11-12T00:36:38.642Z,1013.65
2022-11-12T00:37:38.531Z,1013.68
2022-11-12T00:38:38.530Z,1013.70
2022-11-12T00:39:38.501Z,1013.69
2022-11-12T00:40:38.486Z,1013.69
2022-11-12T00:41:38.482Z,1013.72
2022-11-12T00:42:38.466Z,1013.68
2022-11-12T00:43:38.474Z,1013.69
2022-11-12T00:44:38.446Z,1013.69
2022-11-12T00:45:38.439Z,1013.70
2022-11-12T00:46:38.424Z,1013.72
2022-11-12T00:47:38.414Z,1013.71
2022-11-12T00:48:38.422Z,1013.70
2022-11-12T00:49:38.384Z,1013.73
2022-11-12T00:52:59.501Z,1013.71
2022-11-12T00:53:59.294Z,1013.77
2022-11-12T00:54:59.301Z,1013.72
2022-11-12T00:55:59.271Z,1013.75
2022-11-12T00:56:59.265Z,1013.76
2022-11-12T00:57:59.256Z,1013.75
2022-11-12T00:58:59.255Z,1013.74
2022-11-12T00:59:59.240Z,1013.75
2022-11-12T01:00:59.279Z,1013.75
2022-11-12T01:01:59.207Z,1013.76
2022-11-12T01:02:59.196Z,1013.80
2022-11-12T01:03:59.258Z,1013.73
2022-11-12T01:04:59.198Z,1013.77
2022-11-12T01:05:59.177Z,1013.77
2022-11-12T01:06:59.266Z,1013.79
2022-11-12T01:07:59.139Z,1013.79
2022-11-12T01:08:59.267Z,1013.80
2022-11-12T01:09:59.151Z,1013.76
2022-11-12T01:10:59.118Z,1013.82
2022-11-12T01:11:59.094Z,1013.82
2022-11-12T01:12:59.084Z,1013.80
2022-11-12T01:13:59.083Z,1013.83
2022-11-12T01:14:59.106Z,1013.83
2022-11-12T01:15:59.092Z,1013.89
2022-11-12T01:16:59.042Z,1013.86
2022-11-12T01:17:59.049Z,1013.86
2022-11-12T01:18:59.049Z,1013.86
2022-11-12T01:19:59.008Z,1013.86
2022-11-12T01:20:59.000Z,1013.89
2022-11-12T01:21:59.004Z,1013.87
2022-11-12T01:22:58.976Z,1013.89
2022-11-12T01:23:58.965Z,1013.89
2022-11-12T01:24:59.087Z,1013.91
2022-11-12T01:25:58.945Z,1013.95
2022-11-12T01:26:58.972Z,1013.89
2022-11-12T01:27:58.919Z,1013.87
2022-11-12T01:28:58.911Z,1013.90
2022-11-12T01:29:58.896Z,1013.89
2022-11-12T01:30:58.886Z,1013.89
2022-11-12T01:31:58.903Z,1013.90
2022-11-12T01:32:58.874Z,1013.91
2022-11-12T01:33:58.884Z,1013.88
2022-11-12T01:34:58.868Z,1013.88
2022-11-12T01:35:58.848Z,1013.88
2022-11-12T01:36:58.824Z,1013.88
2022-11-12T01:37:58.816Z,1013.92
2022-11-12T01:38:58.808Z,1013.91
2022-11-12T01:39:58.811Z,1013.92
2022-11-12T01:40:58.898Z,1013.93
2022-11-12T01:41:58.768Z,1013.90
2022-11-12T01:42:58.759Z,1013.91
2022-11-12T01:43:58.746Z,1013.96
2022-11-12T01:44:58.771Z,1013.91
2022-11-12T01:45:58.727Z,1013.95
2022-11-12T01:46:58.713Z,1013.92
2022-11-12T01:47:58.700Z,1013.94
2022-11-12T01:48:58.698Z,1013.90
2022-11-12T01:49:58.687Z,1013.84
2022-11-12T01:50:58.691Z,1013.85
2022-11-12T01:51:58.656Z,1013.81
2022-11-12T01:52:58.660Z,1013.79
2022-11-12T01:53:58.635Z,1013.78
2022-11-12T01:54:58.626Z,1013.77
2022-11-12T01:55:58.637Z,1013.70
2022-11-12T01:56:58.713Z,1013.79
2022-11-12T01:57:58.602Z,1013.70
2022-11-12T01:58:58.586Z,1013.73
2022-11-12T01:59:58.568Z,1013.76
2022-11-12T02:00:58.627Z,1013.75
2022-11-12T02:01:58.556Z,1013.80
2022-11-12T02:02:58.538Z,1013.79
2022-11-12T02:03:58.531Z,1013.76
2022-11-12T02:04:58.516Z,1013.75
2022-11-12T02:05:58.524Z,1013.71
2022-11-12T02:06:58.545Z,1013.72
2022-11-12T02:07:58.481Z,1013.77
2022-11-12T02:08:58.472Z,1013.77
2022-11-12T02:09:58.642Z,1013.74
2022-11-12T02:10:58.455Z,1013.78
2022-11-12T02:11:58.449Z,1013.75
2022-11-12T02:12:58.540Z,1013.80
2022-11-12T02:13:58.427Z,1013.75
2022-11-12T02:14:58.423Z,1013.78
2022-11-12T02:15:58.654Z,1013.78
2022-11-12T02:16:58.382Z,1013.77
2022-11-12T02:17:58.381Z,1013.75
2022-11-12T02:18:58.371Z,1013.79
2022-11-12T02:19:58.363Z,1013.77
2022-11-12T02:20:58.370Z,1013.75
2022-11-12T02:21:58.340Z,1013.75
2022-11-12T02:22:58.320Z,1013.72
2022-11-12T02:23:58.304Z,1013.73
2022-11-12T02:24:58.319Z,1013.73
2022-11-12T02:25:58.307Z,1013.73
2022-11-12T02:26:58.296Z,1013.75
2022-11-12T02:27:58.265Z,1013.76
2022-11-12T02:28:58.388Z,1013.75
2022-11-12T02:29:58.285Z,1013.73
2022-11-12T02:30:58.228Z,1013.69
2022-11-12T02:31:58.219Z,1013.71
2022-11-12T02:32:58.230Z,1013.72
2022-11-12T02:33:58.194Z,1013.73
2022-11-12T02:34:58.187Z,1013.74
2022-11-12T02:35:58.172Z,1013.74
2022-11-12T02:36:58.184Z,1013.79
2022-11-12T02:37:58.173Z,1013.76
2022-11-12T02:38:58.139Z,1013.82
2022-11-12T02:39:58.134Z,1013.80
2022-11-12T02:40:58.115Z,1013.85
2022-11-12T02:41:58.131Z,1013.82
2022-11-12T02:42:58.096Z,1013.82
2022-11-12T02:43:58.084Z,1013.86
2022-11-12T02:44:58.190Z,1013.86
2022-11-12T02:45:58.065Z,1013.83
2022-11-12T02:46:58.048Z,1013.81
2022-11-12T02:47:58.065Z,1013.83
2022-11-12T02:48:58.026Z,1013.81
2022-11-12T02:49:58.018Z,1013.84
2022-11-12T02:50:58.009Z,1013.89
2022-11-12T02:51:57.998Z,1013.85
2022-11-12T02:52:58.047Z,1013.86
2022-11-12T02:53:57.978Z,1013.88
2022-11-12T02:54:58.052Z,1013.89
2022-11-12T02:55:57.954Z,1013.90
2022-11-12T02:56:57.948Z,1013.89
2022-11-12T02:57:57.932Z,1013.88
2022-11-12T02:58:57.946Z,1013.91
2022-11-12T02:59:57.911Z,1013.90
2022-11-12T03:00:58.118Z,1013.93
2022-11-12T03:01:57.896Z,1013.97
2022-11-12T03:02:57.894Z,1013.95
2022-11-12T03:03:57.886Z,1013.93
2022-11-12T03:04:57.859Z,1013.95
2022-11-12T03:05:57.867Z,1014.06
2022-11-12T03:06:57.912Z,1014.04
2022-11-12T03:07:57.821Z,1014.04
2022-11-12T03:08:57.833Z,1014.04
2022-11-12T03:09:57.800Z,1014.01
2022-11-12T03:10:57.784Z,1014.04
2022-11-12T03:11:57.776Z,1014.00
2022-11-12T03:12:57.814Z,1014.00
2022-11-12T03:13:57.774Z,1013.97
2022-11-12T03:14:57.746Z,1013.98
2022-11-12T03:15:57.789Z,1014.00
2022-11-12T03:16:57.832Z,1014.00
2022-11-12T03:17:57.719Z,1014.03
2022-11-12T03:18:57.718Z,1013.99
2022-11-12T03:19:57.692Z,1013.94
2022-11-12T03:20:57.697Z,1013.95
2022-11-12T03:21:57.666Z,1013.94
2022-11-12T03:22:57.652Z,1013.93
2022-11-12T03:23:57.665Z,1013.90
2022-11-12T03:24:57.633Z,1013.84
2022-11-12T03:25:57.625Z,1013.86
2022-11-12T03:26:57.608Z,1013.90
2022-11-12T03:27:57.603Z,1013.90
2022-11-12T03:28:57.628Z,1013.88
2022-11-12T03:29:57.582Z,1013.91
2022-11-12T03:30:57.567Z,1013.92
2022-11-12T03:31:57.598Z,1013.86
2022-11-12T03:32:57.682Z,1013.89
2022-11-12T03:33:57.553Z,1013.86
2022-11-12T03:34:57.522Z,1013.87
2022-11-12T03:35:57.515Z,1013.83
2022-11-12T03:36:57.501Z,1013.78
2022-11-12T03:37:57.512Z,1013.79
2022-11-12T03:38:57.476Z,1013.86
2022-11-12T03:39:57.471Z,1013.84
2022-11-12T03:40:57.461Z,1013.79
2022-11-12T03:41:57.452Z,1013.76
2022-11-12T03:42:57.433Z,1013.82
2022-11-12T03:43:57.447Z,1013.76
2022-11-12T03:44:57.438Z,1013.76
2022-11-12T03:45:57.425Z,1013.78
2022-11-12T03:46:57.434Z,1013.76
2022-11-12T03:47:57.390Z,1013.75
2022-11-12T03:48:57.482Z,1013.79
2022-11-12T03:49:57.360Z,1013.70
2022-11-12T03:50:57.362Z,1013.69
2022-11-12T03:51:57.368Z,1013.67
2022-11-12T03:52:57.329Z,1013.68
2022-11-12T03:53:57.315Z,1013.72
2022-11-12T03:54:57.304Z,1013.73
2022-11-12T03:55:57.290Z,1013.72
2022-11-12T03:56:57.286Z,1013.73
2022-11-12T03:57:57.292Z,1013.71
2022-11-12T03:58:57.271Z,1013.69
2022-11-12T03:59:57.268Z,1013.68
2022-11-12T04:00:57.248Z,1013.71
2022-11-12T04:01:57.251Z,1013.71
2022-11-12T04:02:57.211Z,1013.69
2022-11-12T04:03:57.209Z,1013.69
2022-11-12T04:04:57.304Z,1013.72
2022-11-12T04:05:57.186Z,1013.67
2022-11-12T04:06:57.251Z,1013.70
2022-11-12T04:07:57.186Z,1013.71
2022-11-12T04:08:57.150Z,1013.72
2022-11-12T04:09:57.165Z,1013.73
2022-11-12T04:10:57.162Z,1013.70
2022-11-12T04:11:57.138Z,1013.69
2022-11-12T04:12:57.105Z,1013.67
2022-11-12T04:13:57.095Z,1013.69
2022-11-12T04:14:57.090Z,1013.70
2022-11-12T04:18:18.483Z,1013.66
2022-11-12T04:19:18.460Z,1013.61
2022-11-12T04:20:18.558Z,1013.65
2022-11-12T04:21:18.439Z,1013.68
2022-11-12T04:22:18.440Z,1013.63
2022-11-12T04:23:18.417Z,1013.65
2022-11-12T04:24:18.408Z,1013.66
2022-11-12T04:25:18.395Z,1013.67
2022-11-12T04:26:18.385Z,1013.70
2022-11-12T04:27:18.388Z,1013.70
2022-11-12T04:28:18.362Z,1013.67
2022-11-12T04:29:18.422Z,1013.66
2022-11-12T04:30:18.357Z,1013.66
2022-11-12T04:31:18.333Z,1013.67
2022-11-12T04:32:18.330Z,1013.67
2022-11-12T04:33:18.305Z,1013.61
2022-11-12T04:34:18.293Z,1013.61
2022-11-12T04:35:18.287Z,1013.61
2022-11-12T04:36:18.389Z,1013.62
2022-11-12T04:37:23.206Z,1013.66
2022-11-12T04:38:19.267Z,1013.65
2022-11-12T04:39:18.251Z,1013.67
2022-11-12T04:40:18.279Z,1013.66
2022-11-12T04:41:18.259Z,1013.67
2022-11-12T04:42:18.213Z,1013.70
2022-11-12T04:43:18.204Z,1013.69
2022-11-12T04:44:18.225Z,1013.63
2022-11-12T04:45:18.255Z,1013.65
2022-11-12T04:46:18.200Z,1013.65
2022-11-12T04:47:18.158Z,1013.62
2022-11-12T04:48:18.154Z,1013.65
2022-11-12T04:49:18.139Z,1013.64
2022-11-12T04:50:18.189Z,1013.63
2022-11-12T04:51:18.119Z,1013.65
2022-11-12T04:52:18.214Z,1013.64
2022-11-12T04:53:18.116Z,1013.63
2022-11-12T04:54:18.080Z,1013.64
2022-11-12T04:55:18.073Z,1013.67
2022-11-12T04:56:18.056Z,1013.67
2022-11-12T04:57:18.047Z,1013.63
2022-11-12T04:58:18.054Z,1013.60
2022-11-12T04:59:18.053Z,1013.60
2022-11-12T05:00:18.012Z,1013.57
2022-11-12T05:01:18.142Z,1013.60
2022-11-12T05:02:18.012Z,1013.58
2022-11-12T05:03:18.004Z,1013.58
2022-11-12T05:04:17.968Z,1013.58
2022-11-12T05:05:17.957Z,1013.53
2022-11-12T05:06:17.946Z,1013.58
2022-11-12T05:07:18.018Z,1013.55
2022-11-12T05:08:18.060Z,1013.55
2022-11-12T05:09:17.911Z,1013.55
2022-11-12T05:10:17.899Z,1013.56
2022-11-12T05:11:17.914Z,1013.58
2022-11-12T05:12:17.881Z,1013.55
2022-11-12T05:13:17.890Z,1013.51
2022-11-12T05:14:17.857Z,1013.51
2022-11-12T05:15:17.847Z,1013.54
2022-11-12T05:16:17.835Z,1013.51
2022-11-12T05:17:17.825Z,1013.56
2022-11-12T05:18:17.829Z,1013.57
2022-11-12T05:19:17.825Z,1013.55
2022-11-12T05:20:17.788Z,1013.60
2022-11-12T05:21:17.780Z,1013.51
2022-11-12T05:22:42.119Z,1013.53
2022-11-12T05:23:18.761Z,1013.54
2022-11-12T05:24:40.483Z,1013.54
2022-11-12T05:25:18.734Z,1013.52
2022-11-12T05:26:17.724Z,1013.48
2022-11-12T05:27:17.712Z,1013.54
2022-11-12T05:28:17.717Z,1013.49
2022-11-12T05:29:17.691Z,1013.54
2022-11-12T05:30:17.699Z,1013.51
2022-11-12T05:31:17.694Z,1013.51
2022-11-12T05:32:17.657Z,1013.48
2022-11-12T05:33:17.643Z,1013.50
2022-11-12T05:34:22.739Z,1013.45
2022-11-12T05:35:18.642Z,1013.47
2022-11-12T05:36:17.646Z,1013.51
2022-11-12T05:37:17.600Z,1013.51
2022-11-12T05:38:17.609Z,1013.51
2022-11-12T05:39:17.604Z,1013.56
2022-11-12T05:40:17.678Z,1013.54
2022-11-12T05:41:20.337Z,1013.61
2022-11-12T05:42:17.544Z,1013.59
2022-11-12T05:43:17.556Z,1013.58
2022-11-12T05:44:17.539Z,1013.58
2022-11-12T05:45:17.509Z,1013.54
2022-11-12T05:46:17.496Z,1013.56
2022-11-12T05:47:17.488Z,1013.53
2022-11-12T05:48:22.994Z,1013.58
2022-11-12T05:49:18.641Z,1013.54
2022-11-12T05:50:17.452Z,1013.54
2022-11-12T05:51:17.445Z,1013.50
2022-11-12T05:52:17.450Z,1013.50
2022-11-12T05:53:17.420Z,1013.52
2022-11-12T05:54:17.692Z,1013.52
2022-11-12T05:55:17.410Z,1013.49
2022-11-12T05:56:17.499Z,1013.49
2022-11-12T05:57:17.397Z,1013.46
2022-11-12T05:58:17.377Z,1013.47
2022-11-12T05:59:17.351Z,1013.48
2022-11-12T06:00:17.341Z,1013.47
2022-11-12T06:01:17.333Z,1013.48
2022-11-12T06:02:17.435Z,1013.48
2022-11-12T06:03:17.311Z,1013.48
2022-11-12T06:04:17.321Z,1013.50
2022-11-12T06:05:17.286Z,1013.47
2022-11-12T06:06:17.276Z,1013.47
2022-11-12T06:07:17.304Z,1013.52
2022-11-12T06:08:17.254Z,1013.50
2022-11-12T06:09:17.265Z,1013.46
2022-11-12T06:10:20.489Z,1013.51
2022-11-12T06:11:17.222Z,1013.45
2022-11-12T06:12:17.351Z,1013.45
2022-11-12T06:13:17.196Z,1013.46
2022-11-12T06:14:17.209Z,1013.47
2022-11-12T06:15:17.177Z,1013.48
2022-11-12T06:16:17.166Z,1013.49
2022-11-12T06:17:17.153Z,1013.55
2022-11-12T06:18:17.142Z,1013.50
2022-11-12T06:19:17.132Z,1013.53
2022-11-12T06:20:17.144Z,1013.56
2022-11-12T06:21:17.106Z,1013.57
2022-11-12T06:22:17.117Z,1013.56
2022-11-12T06:23:17.087Z,1013.56
2022-11-12T06:24:17.084Z,1013.53
2022-11-12T06:25:17.083Z,1013.53
2022-11-12T06:26:17.054Z,1013.53
2022-11-12T06:27:17.061Z,1013.56
2022-11-12T06:28:17.205Z,1013.54
2022-11-12T06:29:17.019Z,1013.59
2022-11-12T06:30:17.547Z,1013.55
2022-11-12T06:31:16.996Z,1013.57
2022-11-12T06:32:17.024Z,1013.56
2022-11-12T06:33:16.972Z,1013.60
2022-11-12T06:34:16.964Z,1013.57
2022-11-12T06:35:16.951Z,1013.63
2022-11-12T06:36:16.942Z,1013.64
2022-11-12T06:37:16.952Z,1013.65
2022-11-12T06:38:16.924Z,1013.65
2022-11-12T06:39:16.927Z,1013.65
2022-11-12T06:40:16.895Z,1013.64
2022-11-12T06:41:16.882Z,1013.64
2022-11-12T06:42:16.879Z,1013.65
2022-11-12T06:43:16.860Z,1013.65
2022-11-12T06:44:21.967Z,1013.66
2022-11-12T06:45:17.839Z,1013.67
2022-11-12T06:46:16.831Z,1013.67
2022-11-12T06:47:16.836Z,1013.67
2022-11-12T06:48:16.807Z,1013.62
2022-11-12T06:49:16.926Z,1013.62
2022-11-12T06:50:16.783Z,1013.64
2022-11-12T06:51:16.793Z,1013.64
2022-11-12T06:52:16.968Z,1013.67
2022-11-12T06:53:16.751Z,1013.69
2022-11-12T06:54:16.765Z,1013.66
2022-11-12T06:55:16.725Z,1013.66
2022-11-12T06:56:16.898Z,1013.66
2022-11-12T06:57:16.766Z,1013.69
2022-11-12T06:58:16.696Z,1013.71
2022-11-12T07:01:37.300Z,1013.73
2022-11-12T07:02:37.141Z,1013.72
2022-11-12T07:03:37.099Z,1013.76
2022-11-12T07:04:37.099Z,1013.69
2022-11-12T07:05:37.084Z,1013.80
2022-11-12T07:06:37.148Z,1013.78
2022-11-12T07:07:37.076Z,1013.77
2022-11-12T07:08:37.071Z,1013.82
2022-11-12T07:09:37.034Z,1013.78
2022-11-12T07:10:37.018Z,1013.81
2022-11-12T07:11:37.007Z,1013.78
2022-11-12T07:12:36.997Z,1013.80
2022-11-12T07:13:36.987Z,1013.84
2022-11-12T07:14:37.006Z,1013.85
2022-11-12T07:15:36.964Z,1013.85
2022-11-12T07:16:36.953Z,1013.85
2022-11-12T07:17:37.055Z,1013.83
2022-11-12T07:18:36.951Z,1013.81
2022-11-12T07:19:36.942Z,1013.84
2022-11-12T07:20:36.909Z,1013.83
2022-11-12T07:21:36.899Z,1013.82
2022-11-12T07:22:36.914Z,1013.78
2022-11-12T07:23:36.909Z,1013.77
2022-11-12T07:24:36.898Z,1013.77
2022-11-12T07:25:36.860Z,1013.74
2022-11-12T07:26:36.841Z,1013.74
2022-11-12T07:27:36.850Z,1013.78
2022-11-12T07:28:36.842Z,1013.78
2022-11-12T07:29:47.550Z,1013.78
2022-11-12T07:30:37.796Z,1013.80
2022-11-12T07:31:36.808Z,1013.80
2022-11-12T07:32:43.289Z,1013.75
2022-11-12T07:33:37.885Z,1013.73
2022-11-12T07:34:36.771Z,1013.72
2022-11-12T07:35:36.748Z,1013.70
2022-11-12T07:36:36.760Z,1013.73
2022-11-12T07:37:36.730Z,1013.73
2022-11-12T07:38:36.713Z,1013.69
2022-11-12T07:39:36.728Z,1013.71
2022-11-12T07:40:36.694Z,1013.71
2022-11-12T07:41:36.703Z,1013.68
2022-11-12T07:42:36.669Z,1013.68
2022-11-12T07:43:36.680Z,1013.69
2022-11-12T07:44:36.648Z,1013.69
2022-11-12T07:45:36.640Z,1013.67
2022-11-12T07:46:36.651Z,1013.69
2022-11-12T07:47:36.747Z,1013.73
2022-11-12T07:48:36.611Z,1013.74
2022-11-12T07:49:36.727Z,1013.73
2022-11-12T07:50:36.626Z,1013.78
2022-11-12T07:51:36.569Z,1013.72
2022-11-12T07:52:36.715Z,1013.76
2022-11-12T07:53:36.548Z,1013.74
2022-11-12T07:54:36.567Z,1013.73
2022-11-12T07:55:36.527Z,1013.73
2022-11-12T07:56:36.514Z,1013.70
2022-11-12T07:57:36.659Z,1013.72
2022-11-12T07:58:36.512Z,1013.75
2022-11-12T07:59:37.342Z,1013.75
2022-11-12T08:00:36.472Z,1013.75
2022-11-12T08:01:36.566Z,1013.72
2022-11-12T08:02:36.704Z,1013.70
2022-11-12T08:03:36.442Z,1013.66
2022-11-12T08:04:36.498Z,1013.67
2022-11-12T08:05:36.529Z,1013.70
2022-11-12T08:06:36.490Z,1013.65
2022-11-12T08:07:36.525Z,1013.66
2022-11-12T08:08:36.380Z,1013.68
2022-11-12T08:09:36.453Z,1013.64
2022-11-12T08:10:36.362Z,1013.67
2022-11-12T08:11:36.369Z,1013.62
2022-11-12T08:12:36.595Z,1013.62
2022-11-12T08:13:36.333Z,1013.64
2022-11-12T08:14:36.318Z,1013.64
2022-11-12T08:15:36.320Z,1013.67
2022-11-12T08:16:36.320Z,1013.68
2022-11-12T08:17:36.636Z,1013.72
2022-11-12T08:18:36.269Z,1013.68
2022-11-12T08:19:36.306Z,1013.68
2022-11-12T08:20:36.247Z,1013.68
2022-11-12T08:21:36.361Z,1013.64
2022-11-12T08:22:36.229Z,1013.67
2022-11-12T08:23:36.219Z,1013.68
2022-11-12T08:24:36.205Z,1013.68
2022-11-12T08:25:36.218Z,1013.68
2022-11-12T08:26:36.184Z,1013.66
2022-11-12T08:27:36.172Z,1013.65
2022-11-12T08:28:36.169Z,1013.67
2022-11-12T08:29:36.158Z,1013.63
2022-11-12T08:30:36.159Z,1013.65
2022-11-12T08:31:36.149Z,1013.67
2022-11-12T08:32:36.122Z,1013.66
2022-11-12T08:33:36.137Z,1013.70
2022-11-12T08:34:36.093Z,1013.68
2022-11-12T08:35:36.088Z,1013.68
2022-11-12T08:36:36.073Z,1013.71
2022-11-12T08:37:36.177Z,1013.70
2022-11-12T08:38:36.397Z,1013.65
2022-11-12T08:39:36.067Z,1013.67
2022-11-12T08:40:36.024Z,1013.71
2022-11-12T08:41:36.037Z,1013.69
2022-11-12T08:42:36.004Z,1013.71
2022-11-12T08:43:35.999Z,1013.75
2022-11-12T08:44:36.008Z,1013.73
2022-11-12T08:45:35.975Z,1013.67
2022-11-12T08:46:35.984Z,1013.66
2022-11-12T08:47:35.953Z,1013.71
2022-11-12T08:48:36.035Z,1013.72
2022-11-12T08:49:35.928Z,1013.69
2022-11-12T08:50:35.912Z,1013.69
2022-11-12T08:51:35.928Z,1013.71
2022-11-12T08:52:35.896Z,1013.72
2022-11-12T08:53:36.005Z,1013.72
2022-11-12T08:54:35.869Z,1013.74
2022-11-12T08:55:35.866Z,1013.75
2022-11-12T08:56:35.874Z,1013.72
2022-11-12T08:57:35.844Z,1013.73
2022-11-12T08:58:35.827Z,1013.78
2022-11-12T08:59:35.819Z,1013.77
2022-11-12T09:00:35.847Z,1013.77
2022-11-12T09:01:35.870Z,1013.80
2022-11-12T09:02:35.821Z,1013.76
2022-11-12T09:03:35.778Z,1013.74
2022-11-12T09:04:35.759Z,1013.77
2022-11-12T09:05:35.838Z,1013.82
2022-11-12T09:06:35.882Z,1013.78
2022-11-12T09:07:49.213Z,1013.76
2022-11-12T09:08:36.719Z,1013.82
2022-11-12T09:09:35.843Z,1013.83
2022-11-12T09:10:35.732Z,1013.84
2022-11-12T09:11:35.810Z,1013.86
2022-11-12T09:12:35.714Z,1013.84
2022-11-12T09:13:35.877Z,1013.83
2022-11-12T09:14:35.754Z,1013.89
2022-11-12T09:15:38.318Z,1013.87
2022-11-12T09:16:35.649Z,1013.89
2022-11-12T09:17:35.643Z,1013.90
2022-11-12T09:18:35.751Z,1013.91
2022-11-12T09:19:38.674Z,1013.92
2022-11-12T09:20:36.582Z,1013.93
2022-11-12T09:21:35.660Z,1013.91
2022-11-12T09:22:35.652Z,1013.92
2022-11-12T09:23:35.685Z,1013.94
2022-11-12T09:24:35.926Z,1013.92
2022-11-12T09:25:35.787Z,1013.92
2022-11-12T09:26:35.589Z,1013.92
2022-11-12T09:27:35.541Z,1013.97
2022-11-12T09:28:35.536Z,1013.94
2022-11-12T09:29:35.472Z,1013.98
2022-11-12T09:30:35.469Z,1014.02
2022-11-12T09:31:35.451Z,1014.05
2022-11-12T09:32:35.490Z,1014.08
2022-11-12T09:33:35.470Z,1014.11
2022-11-12T09:34:35.456Z,1014.14
2022-11-12T09:35:35.599Z,1014.12
2022-11-12T09:36:39.629Z,1014.12
2022-11-12T09:37:35.388Z,1014.14
2022-11-12T09:38:35.440Z,1014.11
2022-11-12T09:39:35.382Z,1014.15
2022-11-12T09:40:35.516Z,1014.15
2022-11-12T09:41:35.473Z,1014.12
2022-11-12T09:42:35.334Z,1014.12
2022-11-12T09:43:35.315Z,1014.11
2022-11-12T09:44:36.972Z,1014.13
2022-11-12T09:45:35.299Z,1014.12
2022-11-12T09:46:35.426Z,1014.14
2022-11-12T09:47:35.273Z,1014.11
2022-11-12T09:48:35.270Z,1014.13
2022-11-12T09:49:35.297Z,1014.10
2022-11-12T09:50:35.240Z,1014.10
2022-11-12T09:51:35.227Z,1014.14
2022-11-12T09:52:35.220Z,1014.13
2022-11-12T09:53:37.144Z,1014.11
2022-11-12T09:54:36.217Z,1014.08
2022-11-12T09:55:35.212Z,1014.03
2022-11-12T09:56:35.173Z,1014.04
2022-11-12T09:57:35.272Z,1014.00
2022-11-12T09:58:35.153Z,1014.02
2022-11-12T09:59:35.140Z,1013.95
2022-11-12T10:00:35.135Z,1013.95
2022-11-12T10:01:35.193Z,1013.94
2022-11-12T10:02:35.117Z,1013.93
2022-11-12T10:03:35.095Z,1013.93
2022-11-12T10:04:35.109Z,1013.86
2022-11-12T10:05:35.071Z,1013.90
2022-11-12T10:06:35.151Z,1013.85
2022-11-12T10:07:35.079Z,1013.89
2022-11-12T10:08:35.068Z,1013.88
2022-11-12T10:09:35.028Z,1013.90
2022-11-12T10:10:35.043Z,1013.86
2022-11-12T10:11:35.040Z,1013.84
2022-11-12T10:12:35.017Z,1013.84
2022-11-12T10:13:35.113Z,1013.83
2022-11-12T10:14:34.992Z,1013.79
2022-11-12T10:15:34.994Z,1013.78
2022-11-12T10:16:34.950Z,1013.79
2022-11-12T10:17:34.941Z,1013.77
2022-11-12T10:18:34.960Z,1013.82
2022-11-12T10:19:34.943Z,1013.79
2022-11-12T10:20:38.666Z,1013.80
2022-11-12T10:21:34.942Z,1013.74
2022-11-12T10:22:34.892Z,1013.73
2022-11-12T10:23:34.881Z,1013.78
2022-11-12T10:24:34.875Z,1013.75
2022-11-12T10:25:34.885Z,1013.73
2022-11-12T10:26:34.848Z,1013.75
2022-11-12T10:27:34.857Z,1013.76
2022-11-12T10:28:38.644Z,1013.75
2022-11-12T10:29:34.921Z,1013.76
2022-11-12T10:30:34.801Z,1013.75
2022-11-12T10:31:34.811Z,1013.74
2022-11-12T10:32:34.780Z,1013.75
2022-11-12T10:33:34.766Z,1013.76
2022-11-12T10:34:34.755Z,1013.75
2022-11-12T10:35:34.742Z,1013.77
2022-11-12T10:36:34.764Z,1013.76
2022-11-12T10:37:34.716Z,1013.71
2022-11-12T10:38:34.712Z,1013.68
2022-11-12T10:39:34.695Z,1013.72
2022-11-12T10:40:34.688Z,1013.76
2022-11-12T10:41:34.699Z,1013.69
2022-11-12T10:42:34.665Z,1013.67
2022-11-12T10:43:34.648Z,1013.69
2022-11-12T10:44:34.638Z,1013.64
2022-11-12T10:45:34.741Z,1013.63
2022-11-12T10:46:34.641Z,1013.64
2022-11-12T10:47:34.637Z,1013.55
2022-11-12T10:48:35.649Z,1013.54
2022-11-12T10:49:34.580Z,1013.53
2022-11-12T10:50:34.632Z,1013.51
2022-11-12T10:51:34.584Z,1013.52
2022-11-12T10:52:34.580Z,1013.46
2022-11-12T10:53:34.539Z,1013.46
2022-11-12T10:54:34.526Z,1013.42
2022-11-12T10:55:34.520Z,1013.42
2022-11-12T10:56:34.506Z,1013.39
2022-11-12T10:57:34.505Z,1013.42
2022-11-12T10:58:34.511Z,1013.37
2022-11-12T10:59:34.470Z,1013.35
2022-11-12T11:00:34.467Z,1013.37
2022-11-12T11:01:35.808Z,1013.31
2022-11-12T11:02:34.554Z,1013.34
2022-11-12T11:03:34.450Z,1013.34
2022-11-12T11:04:34.415Z,1013.32
2022-11-12T11:05:34.403Z,1013.35
2022-11-12T11:06:34.576Z,1013.33
2022-11-12T11:07:34.381Z,1013.33
2022-11-12T11:08:36.234Z,1013.33
2022-11-12T11:09:34.381Z,1013.31
2022-11-12T11:10:34.351Z,1013.29
2022-11-12T11:11:34.336Z,1013.33
2022-11-12T11:12:34.344Z,1013.31
2022-11-12T11:13:34.338Z,1013.33
2022-11-12T11:14:34.335Z,1013.30
2022-11-12T11:15:34.294Z,1013.29
2022-11-12T11:16:34.323Z,1013.31
2022-11-12T11:17:34.384Z,1013.34
2022-11-12T11:18:34.266Z,1013.32
2022-11-12T11:19:34.246Z,1013.32
2022-11-12T11:20:34.240Z,1013.30
2022-11-12T11:21:39.218Z,1013.29
2022-11-12T11:22:35.234Z,1013.29
2022-11-12T11:23:34.204Z,1013.27
2022-11-12T11:24:34.197Z,1013.24
2022-11-12T11:25:34.178Z,1013.25
2022-11-12T11:26:34.183Z,1013.24
2022-11-12T11:27:34.193Z,1013.28
2022-11-12T11:28:34.150Z,1013.27
2022-11-12T11:29:34.157Z,1013.26
2022-11-12T11:30:34.123Z,1013.23
2022-11-12T11:31:34.139Z,1013.21
2022-11-12T11:32:37.376Z,1013.17
2022-11-12T11:33:34.205Z,1013.17
2022-11-12T11:34:34.080Z,1013.14
2022-11-12T11:35:34.070Z,1013.15
2022-11-12T11:36:34.146Z,1013.15
2022-11-12T11:37:34.056Z,1013.13
2022-11-12T11:38:34.042Z,1013.10
2022-11-12T11:39:34.023Z,1013.13
2022-11-12T11:40:34.013Z,1013.10
2022-11-12T11:41:34.030Z,1013.10
2022-11-12T11:42:33.994Z,1013.11
2022-11-12T11:43:34.013Z,1013.09
2022-11-12T11:44:33.989Z,1013.11
2022-11-12T11:45:33.957Z,1013.10
2022-11-12T11:46:34.012Z,1013.08
2022-11-12T11:47:50.389Z,1013.10
2022-11-12T11:48:34.925Z,1013.08
2022-11-12T11:49:34.036Z,1013.07
2022-11-12T11:50:33.905Z,1013.06
2022-11-12T11:51:33.890Z,1013.08
2022-11-12T11:52:33.909Z,1013.07
2022-11-12T11:53:33.866Z,1013.07
2022-11-12T11:54:33.856Z,1013.07
2022-11-12T11:55:33.843Z,1013.08
2022-11-12T11:56:33.869Z,1013.06
2022-11-12T11:57:33.827Z,1013.09
2022-11-12T11:58:33.867Z,1013.05
2022-11-12T11:59:33.852Z,1013.06
2022-11-12T12:00:33.799Z,1013.05
2022-11-12T12:01:33.865Z,1013.03
2022-11-12T12:02:33.767Z,1013.02
2022-11-12T12:03:33.784Z,1013.03
2022-11-12T12:04:33.772Z,1013.05
2022-11-12T12:05:33.847Z,1013.01
2022-11-12T12:06:33.729Z,1013.03
2022-11-12T12:07:33.995Z,1013.02
2022-11-12T12:08:33.699Z,1013.01
2022-11-12T12:09:33.688Z,1012.97
2022-11-12T12:10:53.670Z,1012.99
2022-11-12T12:11:34.712Z,1013.00
2022-11-12T12:12:33.655Z,1013.00